sensor_id;sensor_type;location;lat;lon;timestamp;temperature;humidity
78708;SHT31;68037;51.978;5.650;2023-04-02T00:02:26;11.4;64.0
78708;SHT31;68037;51.978;5.650;2023-04-02T00:05:41;11.2;64.2
78708;SHT31;68037;51.978;5.650;2023-04-02T00:08:37;11.2;66.0
78708;SHT31;68037;51.978;5.650;2023-04-02T00:11:08;11.2;66.2
78708;SHT31;68037;51.978;5.650;2023-04-02T00:13:43;11.1;65.2
78708;SHT31;68037;51.978;5.650;2023-04-02T00:16:21;11.1;65.7
78708;SHT31;68037;51.978;5.650;2023-04-02T00:18:57;11.1;66.7
78708;SHT31;68037;51.978;5.650;2023-04-02T00:21:32;11.1;66.7
78708;SHT31;68037;51.978;5.650;2023-04-02T00:24:16;11.1;66.3
78708;SHT31;68037;51.978;5.650;2023-04-02T00:26:47;11.2;66.0
78708;SHT31;68037;51.978;5.650;2023-04-02T00:29:18;11.2;66.3
78708;SHT31;68037;51.978;5.650;2023-04-02T00:31:52;11.2;66.1
78708;SHT31;68037;51.978;5.650;2023-04-02T00:34:31;11.3;65.7
78708;SHT31;68037;51.978;5.650;2023-04-02T00:37:04;11.4;65.0
78708;SHT31;68037;51.978;5.650;2023-04-02T00:39:37;11.4;63.0
78708;SHT31;68037;51.978;5.650;2023-04-02T00:42:11;11.4;63.9
78708;SHT31;68037;51.978;5.650;2023-04-02T00:44:45;11.3;64.1
78708;SHT31;68037;51.978;5.650;2023-04-02T00:47:22;11.2;64.1
78708;SHT31;68037;51.978;5.650;2023-04-02T00:49:58;11.2;64.2
78708;SHT31;68037;51.978;5.650;2023-04-02T00:52:32;11.3;64.6
78708;SHT31;68037;51.978;5.650;2023-04-02T00:55:07;11.3;64.0
78708;SHT31;68037;51.978;5.650;2023-04-02T00:57:42;11.3;64.5
78708;SHT31;68037;51.978;5.650;2023-04-02T01:00:19;11.3;63.3
78708;SHT31;68037;51.978;5.650;2023-04-02T01:03:30;11.3;63.5
78708;SHT31;68037;51.978;5.650;2023-04-02T01:06:06;11.2;63.6
78708;SHT31;68037;51.978;5.650;2023-04-02T01:08:51;11.2;63.0
78708;SHT31;68037;51.978;5.650;2023-04-02T01:11:35;11.1;63.2
78708;SHT31;68037;51.978;5.650;2023-04-02T01:14:21;11.0;64.3
78708;SHT31;68037;51.978;5.650;2023-04-02T01:16:59;11.0;64.0
78708;SHT31;68037;51.978;5.650;2023-04-02T01:19:57;11.0;63.9
78708;SHT31;68037;51.978;5.650;2023-04-02T01:22:43;11.0;64.1
78708;SHT31;68037;51.978;5.650;2023-04-02T01:25:23;10.9;64.2
78708;SHT31;68037;51.978;5.650;2023-04-02T01:28:04;10.9;64.0
78708;SHT31;68037;51.978;5.650;2023-04-02T01:30:37;10.9;64.0
78708;SHT31;68037;51.978;5.650;2023-04-02T01:33:07;10.8;64.2
78708;SHT31;68037;51.978;5.650;2023-04-02T01:35:40;10.8;64.6
78708;SHT31;68037;51.978;5.650;2023-04-02T01:38:19;10.8;64.1
78708;SHT31;68037;51.978;5.650;2023-04-02T01:41:01;10.7;63.9
78708;SHT31;68037;51.978;5.650;2023-04-02T01:43:39;10.7;64.8
78708;SHT31;68037;51.978;5.650;2023-04-02T01:46:26;10.6;64.7
78708;SHT31;68037;51.978;5.650;2023-04-02T01:49:00;10.6;63.9
78708;SHT31;68037;51.978;5.650;2023-04-02T01:51:38;10.5;64.5
78708;SHT31;68037;51.978;5.650;2023-04-02T01:54:15;10.6;65.0
78708;SHT31;68037;51.978;5.650;2023-04-02T01:56:50;10.6;64.5
78708;SHT31;68037;51.978;5.650;2023-04-02T01:59:24;10.6;64.7
78708;SHT31;68037;51.978;5.650;2023-04-02T02:02:00;10.7;64.2
78708;SHT31;68037;51.978;5.650;2023-04-02T02:04:35;10.8;64.5
78708;SHT31;68037;51.978;5.650;2023-04-02T02:07:05;10.8;63.2
78708;SHT31;68037;51.978;5.650;2023-04-02T02:09:41;10.9;62.7
78708;SHT31;68037;51.978;5.650;2023-04-02T02:12:14;10.9;62.5
78708;SHT31;68037;51.978;5.650;2023-04-02T02:14:47;10.8;62.3
78708;SHT31;68037;51.978;5.650;2023-04-02T02:17:21;10.7;62.6
78708;SHT31;68037;51.978;5.650;2023-04-02T02:19:55;10.7;62.4
78708;SHT31;68037;51.978;5.650;2023-04-02T02:22:28;10.6;62.9
78708;SHT31;68037;51.978;5.650;2023-04-02T02:25:01;10.5;63.1
78708;SHT31;68037;51.978;5.650;2023-04-02T02:27:46;10.5;63.3
78708;SHT31;68037;51.978;5.650;2023-04-02T02:30:22;10.4;64.0
78708;SHT31;68037;51.978;5.650;2023-04-02T02:33:02;10.4;63.5
78708;SHT31;68037;51.978;5.650;2023-04-02T02:35:39;10.4;64.4
78708;SHT31;68037;51.978;5.650;2023-04-02T02:38:59;10.4;63.7
78708;SHT31;68037;51.978;5.650;2023-04-02T02:41:36;10.4;63.3
78708;SHT31;68037;51.978;5.650;2023-04-02T02:44:19;10.4;63.7
78708;SHT31;68037;51.978;5.650;2023-04-02T02:46:57;10.5;63.0
78708;SHT31;68037;51.978;5.650;2023-04-02T02:49:31;10.4;63.2
78708;SHT31;68037;51.978;5.650;2023-04-02T02:52:13;10.4;62.7
78708;SHT31;68037;51.978;5.650;2023-04-02T02:54:48;10.4;62.5
78708;SHT31;68037;51.978;5.650;2023-04-02T02:57:23;10.4;62.5
78708;SHT31;68037;51.978;5.650;2023-04-02T02:59:57;10.3;62.7
78708;SHT31;68037;51.978;5.650;2023-04-02T03:02:27;10.3;62.7
78708;SHT31;68037;51.978;5.650;2023-04-02T03:04:57;10.2;62.9
78708;SHT31;68037;51.978;5.650;2023-04-02T03:07:30;10.2;63.5
78708;SHT31;68037;51.978;5.650;2023-04-02T03:10:04;10.3;63.0
78708;SHT31;68037;51.978;5.650;2023-04-02T03:12:43;10.2;62.3
78708;SHT31;68037;51.978;5.650;2023-04-02T03:15:22;10.2;63.0
78708;SHT31;68037;51.978;5.650;2023-04-02T03:18:00;10.2;62.3
78708;SHT31;68037;51.978;5.650;2023-04-02T03:20:36;10.1;62.6
78708;SHT31;68037;51.978;5.650;2023-04-02T03:23:16;10.1;62.5
78708;SHT31;68037;51.978;5.650;2023-04-02T03:25:51;10.1;63.1
78708;SHT31;68037;51.978;5.650;2023-04-02T03:28:30;10.0;63.0
78708;SHT31;68037;51.978;5.650;2023-04-02T03:31:05;10.0;63.2
78708;SHT31;68037;51.978;5.650;2023-04-02T03:33:41;10.0;63.5
78708;SHT31;68037;51.978;5.650;2023-04-02T03:36:19;10.0;63.0
78708;SHT31;68037;51.978;5.650;2023-04-02T03:39:16;10.0;63.7
78708;SHT31;68037;51.978;5.650;2023-04-02T03:41:51;10.1;62.7
78708;SHT31;68037;51.978;5.650;2023-04-02T03:44:27;10.1;62.6
78708;SHT31;68037;51.978;5.650;2023-04-02T03:47:08;10.1;63.2
78708;SHT31;68037;51.978;5.650;2023-04-02T03:49:51;10.1;62.7
78708;SHT31;68037;51.978;5.650;2023-04-02T03:52:27;10.2;63.2
78708;SHT31;68037;51.978;5.650;2023-04-02T03:55:00;10.2;62.0
78708;SHT31;68037;51.978;5.650;2023-04-02T03:57:36;10.2;61.5
78708;SHT31;68037;51.978;5.650;2023-04-02T04:00:16;10.2;61.5
78708;SHT31;68037;51.978;5.650;2023-04-02T04:02:50;10.1;61.6
78708;SHT31;68037;51.978;5.650;2023-04-02T04:05:37;10.1;61.6
78708;SHT31;68037;51.978;5.650;2023-04-02T04:08:21;10.2;61.5
78708;SHT31;68037;51.978;5.650;2023-04-02T04:10:58;10.2;61.1
78708;SHT31;68037;51.978;5.650;2023-04-02T04:13:38;10.2;60.7
78708;SHT31;68037;51.978;5.650;2023-04-02T04:16:30;10.2;61.2
78708;SHT31;68037;51.978;5.650;2023-04-02T04:19:13;10.3;61.6
78708;SHT31;68037;51.978;5.650;2023-04-02T04:21:51;10.4;60.6
78708;SHT31;68037;51.978;5.650;2023-04-02T04:24:33;10.4;60.1
78708;SHT31;68037;51.978;5.650;2023-04-02T04:27:30;10.5;59.6
78708;SHT31;68037;51.978;5.650;2023-04-02T04:30:15;10.6;58.9
78708;SHT31;68037;51.978;5.650;2023-04-02T04:32:57;10.5;58.2
78708;SHT31;68037;51.978;5.650;2023-04-02T04:35:30;10.5;57.8
78708;SHT31;68037;51.978;5.650;2023-04-02T04:38:05;10.4;57.8
78708;SHT31;68037;51.978;5.650;2023-04-02T04:40:46;10.3;57.2
78708;SHT31;68037;51.978;5.650;2023-04-02T04:43:30;10.3;57.6
78708;SHT31;68037;51.978;5.650;2023-04-02T04:46:07;10.3;57.5
78708;SHT31;68037;51.978;5.650;2023-04-02T04:48:47;10.3;56.8
78708;SHT31;68037;51.978;5.650;2023-04-02T04:51:26;10.3;57.6
78708;SHT31;68037;51.978;5.650;2023-04-02T04:53:59;10.2;57.4
78708;SHT31;68037;51.978;5.650;2023-04-02T04:56:31;10.2;57.5
78708;SHT31;68037;51.978;5.650;2023-04-02T04:59:05;10.2;57.5
78708;SHT31;68037;51.978;5.650;2023-04-02T05:01:47;10.2;55.8
78708;SHT31;68037;51.978;5.650;2023-04-02T05:04:27;10.2;55.5
78708;SHT31;68037;51.978;5.650;2023-04-02T05:07:04;10.1;55.2
78708;SHT31;68037;51.978;5.650;2023-04-02T05:09:40;10.1;55.5
78708;SHT31;68037;51.978;5.650;2023-04-02T05:12:18;10.0;56.5
78708;SHT31;68037;51.978;5.650;2023-04-02T05:14:56;10.0;56.7
78708;SHT31;68037;51.978;5.650;2023-04-02T05:17:32;9.9;56.5
78708;SHT31;68037;51.978;5.650;2023-04-02T05:20:13;9.9;56.3
78708;SHT31;68037;51.978;5.650;2023-04-02T05:22:49;9.9;56.4
78708;SHT31;68037;51.978;5.650;2023-04-02T05:25:29;9.9;57.2
78708;SHT31;68037;51.978;5.650;2023-04-02T05:28:12;10.0;55.2
78708;SHT31;68037;51.978;5.650;2023-04-02T05:31:04;9.9;54.2
78708;SHT31;68037;51.978;5.650;2023-04-02T05:33:36;9.9;53.5
78708;SHT31;68037;51.978;5.650;2023-04-02T05:36:10;9.8;53.8
78708;SHT31;68037;51.978;5.650;2023-04-02T05:38:44;9.6;54.2
78708;SHT31;68037;51.978;5.650;2023-04-02T05:41:21;9.5;54.2
78708;SHT31;68037;51.978;5.650;2023-04-02T05:44:00;9.4;54.8
78708;SHT31;68037;51.978;5.650;2023-04-02T05:46:34;9.4;55.6
78708;SHT31;68037;51.978;5.650;2023-04-02T05:49:10;9.4;54.8
78708;SHT31;68037;51.978;5.650;2023-04-02T05:51:48;9.4;55.4
78708;SHT31;68037;51.978;5.650;2023-04-02T05:54:25;9.3;55.1
78708;SHT31;68037;51.978;5.650;2023-04-02T05:57:02;9.3;55.3
78708;SHT31;68037;51.978;5.650;2023-04-02T05:59:37;9.3;54.7
78708;SHT31;68037;51.978;5.650;2023-04-02T06:02:19;9.2;55.5
78708;SHT31;68037;51.978;5.650;2023-04-02T06:05:06;9.2;56.6
78708;SHT31;68037;51.978;5.650;2023-04-02T06:08:49;9.3;55.7
78708;SHT31;68037;51.978;5.650;2023-04-02T06:11:39;9.5;55.9
78708;SHT31;68037;51.978;5.650;2023-04-02T06:14:32;9.6;55.5
78708;SHT31;68037;51.978;5.650;2023-04-02T06:17:17;9.7;54.9
78708;SHT31;68037;51.978;5.650;2023-04-02T06:19:56;9.8;53.0
78708;SHT31;68037;51.978;5.650;2023-04-02T06:22:37;9.8;53.1
78708;SHT31;68037;51.978;5.650;2023-04-02T06:25:31;9.8;52.6
78708;SHT31;68037;51.978;5.650;2023-04-02T06:28:14;9.9;52.8
78708;SHT31;68037;51.978;5.650;2023-04-02T06:30:50;9.9;52.8
78708;SHT31;68037;51.978;5.650;2023-04-02T06:33:22;9.9;52.9
78708;SHT31;68037;51.978;5.650;2023-04-02T06:35:54;9.9;52.8
78708;SHT31;68037;51.978;5.650;2023-04-02T06:38:36;10.0;53.2
78708;SHT31;68037;51.978;5.650;2023-04-02T06:41:18;10.0;53.5
78708;SHT31;68037;51.978;5.650;2023-04-02T06:44:03;10.0;53.5
78708;SHT31;68037;51.978;5.650;2023-04-02T06:46:44;10.1;53.1
78708;SHT31;68037;51.978;5.650;2023-04-02T06:49:22;10.1;51.7
78708;SHT31;68037;51.978;5.650;2023-04-02T06:51:54;10.0;51.2
78708;SHT31;68037;51.978;5.650;2023-04-02T06:54:25;9.9;51.2
78708;SHT31;68037;51.978;5.650;2023-04-02T06:56:55;9.7;51.1
78708;SHT31;68037;51.978;5.650;2023-04-02T06:59:25;9.5;51.5
78708;SHT31;68037;51.978;5.650;2023-04-02T07:01:59;9.4;51.5
78708;SHT31;68037;51.978;5.650;2023-04-02T07:04:33;9.2;52.5
78708;SHT31;68037;51.978;5.650;2023-04-02T07:07:02;9.1;52.8
78708;SHT31;68037;51.978;5.650;2023-04-02T07:09:32;9.0;53.2
78708;SHT31;68037;51.978;5.650;2023-04-02T07:12:16;8.9;53.3
78708;SHT31;68037;51.978;5.650;2023-04-02T07:14:49;8.9;53.5
78708;SHT31;68037;51.978;5.650;2023-04-02T07:17:19;8.9;53.6
78708;SHT31;68037;51.978;5.650;2023-04-02T07:19:49;8.9;53.7
78708;SHT31;68037;51.978;5.650;2023-04-02T07:22:22;8.9;54.9
78708;SHT31;68037;51.978;5.650;2023-04-02T07:24:55;8.9;54.5
78708;SHT31;68037;51.978;5.650;2023-04-02T07:27:32;8.9;54.2
78708;SHT31;68037;51.978;5.650;2023-04-02T07:30:07;9.0;54.9
78708;SHT31;68037;51.978;5.650;2023-04-02T07:32:38;9.0;54.8
78708;SHT31;68037;51.978;5.650;2023-04-02T07:35:09;9.0;53.9
78708;SHT31;68037;51.978;5.650;2023-04-02T07:37:39;9.0;53.8
78708;SHT31;68037;51.978;5.650;2023-04-02T07:40:17;9.0;54.0
78708;SHT31;68037;51.978;5.650;2023-04-02T07:42:50;9.0;54.0
78708;SHT31;68037;51.978;5.650;2023-04-02T07:45:19;8.9;54.0
78708;SHT31;68037;51.978;5.650;2023-04-02T07:47:50;8.9;54.1
78708;SHT31;68037;51.978;5.650;2023-04-02T07:50:20;8.8;54.0
78708;SHT31;68037;51.978;5.650;2023-04-02T07:52:51;8.7;54.3
78708;SHT31;68037;51.978;5.650;2023-04-02T07:55:20;8.7;54.6
78708;SHT31;68037;51.978;5.650;2023-04-02T07:57:52;8.6;55.3
78708;SHT31;68037;51.978;5.650;2023-04-02T08:00:24;8.6;55.7
78708;SHT31;68037;51.978;5.650;2023-04-02T08:02:55;8.5;55.3
78708;SHT31;68037;51.978;5.650;2023-04-02T08:05:24;8.5;55.1
78708;SHT31;68037;51.978;5.650;2023-04-02T08:07:55;8.5;55.5
78708;SHT31;68037;51.978;5.650;2023-04-02T08:10:25;8.4;55.8
78708;SHT31;68037;51.978;5.650;2023-04-02T08:12:54;8.4;56.5
78708;SHT31;68037;51.978;5.650;2023-04-02T08:15:25;8.4;56.9
78708;SHT31;68037;51.978;5.650;2023-04-02T08:17:55;8.3;56.9
78708;SHT31;68037;51.978;5.650;2023-04-02T08:20:25;8.4;56.3
78708;SHT31;68037;51.978;5.650;2023-04-02T08:22:55;8.4;56.6
78708;SHT31;68037;51.978;5.650;2023-04-02T08:25:27;8.4;56.7
78708;SHT31;68037;51.978;5.650;2023-04-02T08:27:58;8.4;56.0
78708;SHT31;68037;51.978;5.650;2023-04-02T08:30:31;8.4;55.5
78708;SHT31;68037;51.978;5.650;2023-04-02T08:33:01;8.4;55.5
78708;SHT31;68037;51.978;5.650;2023-04-02T08:35:30;8.4;55.5
78708;SHT31;68037;51.978;5.650;2023-04-02T08:38:00;8.3;55.6
78708;SHT31;68037;51.978;5.650;2023-04-02T08:40:33;8.3;55.6
78708;SHT31;68037;51.978;5.650;2023-04-02T08:43:32;8.3;55.9
78708;SHT31;68037;51.978;5.650;2023-04-02T08:46:11;8.2;56.8
78708;SHT31;68037;51.978;5.650;2023-04-02T08:48:52;8.2;57.2
78708;SHT31;68037;51.978;5.650;2023-04-02T08:51:26;8.2;56.3
78708;SHT31;68037;51.978;5.650;2023-04-02T08:54:06;8.2;57.0
78708;SHT31;68037;51.978;5.650;2023-04-02T08:56:45;8.3;56.9
78708;SHT31;68037;51.978;5.650;2023-04-02T08:59:25;8.5;56.2
78708;SHT31;68037;51.978;5.650;2023-04-02T09:02:04;8.6;56.5
78708;SHT31;68037;51.978;5.650;2023-04-02T09:04:36;8.7;55.7
78708;SHT31;68037;51.978;5.650;2023-04-02T09:07:12;8.7;54.5
78708;SHT31;68037;51.978;5.650;2023-04-02T09:09:48;8.7;55.1
78708;SHT31;68037;51.978;5.650;2023-04-02T09:12:24;8.7;55.0
78708;SHT31;68037;51.978;5.650;2023-04-02T09:15:09;8.7;56.3
78708;SHT31;68037;51.978;5.650;2023-04-02T09:17:40;8.7;55.2
78708;SHT31;68037;51.978;5.650;2023-04-02T09:20:16;8.7;54.8
78708;SHT31;68037;51.978;5.650;2023-04-02T09:22:49;8.7;55.5
78708;SHT31;68037;51.978;5.650;2023-04-02T09:25:24;8.6;56.4
78708;SHT31;68037;51.978;5.650;2023-04-02T09:27:57;8.6;55.0
78708;SHT31;68037;51.978;5.650;2023-04-02T09:30:41;8.6;55.7
78708;SHT31;68037;51.978;5.650;2023-04-02T09:33:16;8.6;55.5
78708;SHT31;68037;51.978;5.650;2023-04-02T09:35:55;8.6;56.2
78708;SHT31;68037;51.978;5.650;2023-04-02T09:38:26;8.5;56.4
78708;SHT31;68037;51.978;5.650;2023-04-02T09:41:01;8.5;55.4
78708;SHT31;68037;51.978;5.650;2023-04-02T09:43:32;8.5;55.5
78708;SHT31;68037;51.978;5.650;2023-04-02T09:46:04;8.5;55.2
78708;SHT31;68037;51.978;5.650;2023-04-02T09:48:36;8.5;55.5
78708;SHT31;68037;51.978;5.650;2023-04-02T09:51:11;8.5;55.8
78708;SHT31;68037;51.978;5.650;2023-04-02T09:53:44;8.5;55.1
78708;SHT31;68037;51.978;5.650;2023-04-02T09:56:18;8.5;56.6
78708;SHT31;68037;51.978;5.650;2023-04-02T09:59:04;8.5;56.6
78708;SHT31;68037;51.978;5.650;2023-04-02T10:01:36;8.5;55.7
78708;SHT31;68037;51.978;5.650;2023-04-02T10:04:32;8.6;54.9
78708;SHT31;68037;51.978;5.650;2023-04-02T10:07:05;8.6;56.0
78708;SHT31;68037;51.978;5.650;2023-04-02T10:09:36;8.7;55.5
78708;SHT31;68037;51.978;5.650;2023-04-02T10:12:13;8.8;54.3
78708;SHT31;68037;51.978;5.650;2023-04-02T10:14:48;8.9;53.0
78708;SHT31;68037;51.978;5.650;2023-04-02T10:17:26;9.0;53.4
78708;SHT31;68037;51.978;5.650;2023-04-02T10:20:02;9.0;52.3
78708;SHT31;68037;51.978;5.650;2023-04-02T10:22:36;9.0;52.5
78708;SHT31;68037;51.978;5.650;2023-04-02T10:25:12;8.9;52.8
78708;SHT31;68037;51.978;5.650;2023-04-02T10:27:50;8.9;52.5
78708;SHT31;68037;51.978;5.650;2023-04-02T10:30:26;8.9;53.2
78708;SHT31;68037;51.978;5.650;2023-04-02T10:33:02;8.9;53.8
78708;SHT31;68037;51.978;5.650;2023-04-02T10:35:40;8.9;53.7
78708;SHT31;68037;51.978;5.650;2023-04-02T10:38:38;8.9;54.1
78708;SHT31;68037;51.978;5.650;2023-04-02T10:41:40;9.2;55.1
78708;SHT31;68037;51.978;5.650;2023-04-02T10:44:23;9.5;52.7
78708;SHT31;68037;51.978;5.650;2023-04-02T10:47:04;9.7;52.7
78708;SHT31;68037;51.978;5.650;2023-04-02T10:49:41;9.8;51.1
78708;SHT31;68037;51.978;5.650;2023-04-02T10:52:17;9.9;50.1
78708;SHT31;68037;51.978;5.650;2023-04-02T10:54:50;9.9;50.3
78708;SHT31;68037;51.978;5.650;2023-04-02T10:57:29;10.0;50.8
78708;SHT31;68037;51.978;5.650;2023-04-02T11:00:12;10.1;51.5
78708;SHT31;68037;51.978;5.650;2023-04-02T11:02:47;10.2;49.2
78708;SHT31;68037;51.978;5.650;2023-04-02T11:05:24;10.3;48.5
78708;SHT31;68037;51.978;5.650;2023-04-02T11:08:01;10.4;48.4
78708;SHT31;68037;51.978;5.650;2023-04-02T11:10:39;10.5;49.2
78708;SHT31;68037;51.978;5.650;2023-04-02T11:13:22;10.6;50.2
78708;SHT31;68037;51.978;5.650;2023-04-02T11:15:55;10.8;49.0
78708;SHT31;68037;51.978;5.650;2023-04-02T11:18:32;11.0;47.1
78708;SHT31;68037;51.978;5.650;2023-04-02T11:21:05;11.2;48.2
78708;SHT31;68037;51.978;5.650;2023-04-02T11:23:49;11.4;47.0
78708;SHT31;68037;51.978;5.650;2023-04-02T11:26:33;11.5;46.8
78708;SHT31;68037;51.978;5.650;2023-04-02T11:29:49;11.6;45.3
78708;SHT31;68037;51.978;5.650;2023-04-02T11:32:28;11.7;46.2
78708;SHT31;68037;51.978;5.650;2023-04-02T11:35:20;11.8;46.2
78708;SHT31;68037;51.978;5.650;2023-04-02T11:37:41;12.0;45.4
78708;SHT31;68037;51.978;5.650;2023-04-02T11:40:46;12.2;45.8
78708;SHT31;68037;51.978;5.650;2023-04-02T11:43:47;12.3;46.1
78708;SHT31;68037;51.978;5.650;2023-04-02T11:46:39;12.4;45.5
78708;SHT31;68037;51.978;5.650;2023-04-02T11:51:47;12.4;44.1
78708;SHT31;68037;51.978;5.650;2023-04-02T11:54:27;12.5;43.7
78708;SHT31;68037;51.978;5.650;2023-04-02T11:57:02;12.5;43.7
78708;SHT31;68037;51.978;5.650;2023-04-02T11:59:41;12.6;44.2
78708;SHT31;68037;51.978;5.650;2023-04-02T12:02:24;12.6;44.3
78708;SHT31;68037;51.978;5.650;2023-04-02T12:05:12;12.6;44.1
78708;SHT31;68037;51.978;5.650;2023-04-02T12:08:32;12.6;43.0
78708;SHT31;68037;51.978;5.650;2023-04-02T12:11:04;12.6;42.9
78708;SHT31;68037;51.978;5.650;2023-04-02T12:13:52;12.6;42.8
78708;SHT31;68037;51.978;5.650;2023-04-02T12:16:27;12.6;42.6
78708;SHT31;68037;51.978;5.650;2023-04-02T12:19:01;12.6;43.3
78708;SHT31;68037;51.978;5.650;2023-04-02T12:21:36;12.6;44.2
78708;SHT31;68037;51.978;5.650;2023-04-02T12:24:22;12.6;44.0
78708;SHT31;68037;51.978;5.650;2023-04-02T12:27:20;12.8;43.7
78708;SHT31;68037;51.978;5.650;2023-04-02T12:29:50;12.9;43.5
78708;SHT31;68037;51.978;5.650;2023-04-02T12:32:25;12.9;42.5
78708;SHT31;68037;51.978;5.650;2023-04-02T12:34:56;12.9;41.9
78708;SHT31;68037;51.978;5.650;2023-04-02T12:37:29;12.9;42.9
78708;SHT31;68037;51.978;5.650;2023-04-02T12:40:01;12.9;42.9
78708;SHT31;68037;51.978;5.650;2023-04-02T12:42:35;13.0;43.4
78708;SHT31;68037;51.978;5.650;2023-04-02T12:45:06;13.0;42.1
78708;SHT31;68037;51.978;5.650;2023-04-02T12:47:36;13.0;41.8
78708;SHT31;68037;51.978;5.650;2023-04-02T12:50:12;13.0;42.0
78708;SHT31;68037;51.978;5.650;2023-04-02T12:52:45;13.1;40.9
78708;SHT31;68037;51.978;5.650;2023-04-02T12:55:19;13.0;41.7
78708;SHT31;68037;51.978;5.650;2023-04-02T12:57:56;13.0;40.6
78708;SHT31;68037;51.978;5.650;2023-04-02T13:00:33;13.0;40.6
78708;SHT31;68037;51.978;5.650;2023-04-02T13:03:18;13.0;40.4
78708;SHT31;68037;51.978;5.650;2023-04-02T13:05:51;13.0;41.5
78708;SHT31;68037;51.978;5.650;2023-04-02T13:08:26;13.0;42.1
78708;SHT31;68037;51.978;5.650;2023-04-02T13:10:59;13.1;40.9
78708;SHT31;68037;51.978;5.650;2023-04-02T13:13:33;13.1;42.2
78708;SHT31;68037;51.978;5.650;2023-04-02T13:16:27;13.2;41.8
78708;SHT31;68037;51.978;5.650;2023-04-02T13:21:24;13.2;40.7
78708;SHT31;68037;51.978;5.650;2023-04-02T13:23:57;13.3;40.5
78708;SHT31;68037;51.978;5.650;2023-04-02T13:26:28;13.3;41.3
78708;SHT31;68037;51.978;5.650;2023-04-02T13:29:13;13.3;41.3
78708;SHT31;68037;51.978;5.650;2023-04-02T13:31:41;13.4;42.0
78708;SHT31;68037;51.978;5.650;2023-04-02T13:34:12;13.6;42.0
78708;SHT31;68037;51.978;5.650;2023-04-02T13:36:47;13.7;41.0
78708;SHT31;68037;51.978;5.650;2023-04-02T13:39:17;13.8;39.1
78708;SHT31;68037;51.978;5.650;2023-04-02T13:41:51;13.9;39.3
78708;SHT31;68037;51.978;5.650;2023-04-02T13:44:23;14.0;40.3
78708;SHT31;68037;51.978;5.650;2023-04-02T13:46:54;14.0;39.5
78708;SHT31;68037;51.978;5.650;2023-04-02T13:49:27;14.0;39.5
78708;SHT31;68037;51.978;5.650;2023-04-02T13:51:59;14.0;39.1
78708;SHT31;68037;51.978;5.650;2023-04-02T13:54:35;14.0;38.4
78708;SHT31;68037;51.978;5.650;2023-04-02T13:57:07;14.0;38.7
78708;SHT31;68037;51.978;5.650;2023-04-02T13:59:36;14.0;39.5
78708;SHT31;68037;51.978;5.650;2023-04-02T14:02:09;14.0;39.3
78708;SHT31;68037;51.978;5.650;2023-04-02T14:04:45;14.1;39.6
78708;SHT31;68037;51.978;5.650;2023-04-02T14:07:37;14.1;40.3
78708;SHT31;68037;51.978;5.650;2023-04-02T14:10:21;14.2;40.1
78708;SHT31;68037;51.978;5.650;2023-04-02T14:13:11;14.3;39.9
78708;SHT31;68037;51.978;5.650;2023-04-02T14:15:52;14.4;38.8
78708;SHT31;68037;51.978;5.650;2023-04-02T14:18:42;14.4;38.5
78708;SHT31;68037;51.978;5.650;2023-04-02T14:21:25;14.4;38.3
78708;SHT31;68037;51.978;5.650;2023-04-02T14:24:12;14.4;37.9
78708;SHT31;68037;51.978;5.650;2023-04-02T14:26:58;14.3;37.2
78708;SHT31;68037;51.978;5.650;2023-04-02T14:29:34;14.3;37.8
78708;SHT31;68037;51.978;5.650;2023-04-02T14:32:12;14.2;37.7
78708;SHT31;68037;51.978;5.650;2023-04-02T14:34:52;14.1;39.4
78708;SHT31;68037;51.978;5.650;2023-04-02T14:37:35;14.1;38.4
78708;SHT31;68037;51.978;5.650;2023-04-02T14:40:20;14.1;38.6
78708;SHT31;68037;51.978;5.650;2023-04-02T14:42:57;14.0;39.1
78708;SHT31;68037;51.978;5.650;2023-04-02T14:45:41;14.0;39.8
78708;SHT31;68037;51.978;5.650;2023-04-02T14:48:28;14.0;38.1
78708;SHT31;68037;51.978;5.650;2023-04-02T14:51:03;13.9;38.6
78708;SHT31;68037;51.978;5.650;2023-04-02T14:53:46;13.9;39.0
78708;SHT31;68037;51.978;5.650;2023-04-02T14:56:20;13.9;38.9
78708;SHT31;68037;51.978;5.650;2023-04-02T14:58:56;13.9;40.0
78708;SHT31;68037;51.978;5.650;2023-04-02T15:01:37;13.9;39.5
78708;SHT31;68037;51.978;5.650;2023-04-02T15:04:16;13.9;39.2
78708;SHT31;68037;51.978;5.650;2023-04-02T15:06:49;13.9;40.2
78708;SHT31;68037;51.978;5.650;2023-04-02T15:09:25;13.9;40.0
78708;SHT31;68037;51.978;5.650;2023-04-02T15:12:00;13.9;39.8
78708;SHT31;68037;51.978;5.650;2023-04-02T15:14:36;13.9;40.3
78708;SHT31;68037;51.978;5.650;2023-04-02T15:17:09;14.0;40.1
78708;SHT31;68037;51.978;5.650;2023-04-02T15:19:39;14.0;39.0
78708;SHT31;68037;51.978;5.650;2023-04-02T15:22:16;14.0;39.1
78708;SHT31;68037;51.978;5.650;2023-04-02T15:25:01;14.0;39.8
78708;SHT31;68037;51.978;5.650;2023-04-02T15:27:50;14.0;40.0
78708;SHT31;68037;51.978;5.650;2023-04-02T15:30:24;14.0;39.2
78708;SHT31;68037;51.978;5.650;2023-04-02T15:33:23;14.0;38.2
78708;SHT31;68037;51.978;5.650;2023-04-02T15:36:12;14.0;38.4
78708;SHT31;68037;51.978;5.650;2023-04-02T15:38:52;14.0;38.7
78708;SHT31;68037;51.978;5.650;2023-04-02T15:41:28;14.1;38.3
78708;SHT31;68037;51.978;5.650;2023-04-02T15:44:12;14.1;39.5
78708;SHT31;68037;51.978;5.650;2023-04-02T15:46:52;14.2;39.2
78708;SHT31;68037;51.978;5.650;2023-04-02T15:49:35;14.2;38.8
78708;SHT31;68037;51.978;5.650;2023-04-02T15:52:16;14.2;37.9
78708;SHT31;68037;51.978;5.650;2023-04-02T15:55:02;14.2;37.5
78708;SHT31;68037;51.978;5.650;2023-04-02T15:58:07;14.3;37.2
78708;SHT31;68037;51.978;5.650;2023-04-02T16:00:47;14.3;37.3
78708;SHT31;68037;51.978;5.650;2023-04-02T16:04:10;14.3;37.6
78708;SHT31;68037;51.978;5.650;2023-04-02T16:07:00;14.4;37.4
78708;SHT31;68037;51.978;5.650;2023-04-02T16:09:38;14.6;37.0
78708;SHT31;68037;51.978;5.650;2023-04-02T16:12:15;14.9;36.2
78708;SHT31;68037;51.978;5.650;2023-04-02T16:14:46;15.2;36.0
78708;SHT31;68037;51.978;5.650;2023-04-02T16:17:20;15.5;36.2
78708;SHT31;68037;51.978;5.650;2023-04-02T16:19:58;15.8;36.7
78708;SHT31;68037;51.978;5.650;2023-04-02T16:22:29;16.3;34.1
78708;SHT31;68037;51.978;5.650;2023-04-02T16:25:12;16.5;34.4
78708;SHT31;68037;51.978;5.650;2023-04-02T16:27:45;16.6;34.5
78708;SHT31;68037;51.978;5.650;2023-04-02T16:30:32;16.8;34.8
78708;SHT31;68037;51.978;5.650;2023-04-02T16:33:11;16.9;34.2
78708;SHT31;68037;51.978;5.650;2023-04-02T16:35:52;17.0;33.0
78708;SHT31;68037;51.978;5.650;2023-04-02T16:38:32;17.1;33.0
78708;SHT31;68037;51.978;5.650;2023-04-02T16:41:14;17.2;34.5
78708;SHT31;68037;51.978;5.650;2023-04-02T16:43:58;17.5;32.5
78708;SHT31;68037;51.978;5.650;2023-04-02T16:46:38;17.6;32.5
78708;SHT31;68037;51.978;5.650;2023-04-02T16:49:16;17.6;31.9
78708;SHT31;68037;51.978;5.650;2023-04-02T16:51:55;17.5;31.8
78708;SHT31;68037;51.978;5.650;2023-04-02T16:54:33;17.2;32.0
78708;SHT31;68037;51.978;5.650;2023-04-02T16:57:18;17.0;32.6
78708;SHT31;68037;51.978;5.650;2023-04-02T16:59:59;16.8;33.0
78708;SHT31;68037;51.978;5.650;2023-04-02T17:02:43;16.5;33.7
78708;SHT31;68037;51.978;5.650;2023-04-02T17:05:23;16.4;34.2
78708;SHT31;68037;51.978;5.650;2023-04-02T17:08:07;16.2;34.7
78708;SHT31;68037;51.978;5.650;2023-04-02T17:10:50;16.0;34.6
78708;SHT31;68037;51.978;5.650;2023-04-02T17:13:25;15.9;35.0
78708;SHT31;68037;51.978;5.650;2023-04-02T17:16:03;15.7;35.6
78708;SHT31;68037;51.978;5.650;2023-04-02T17:18:34;15.6;35.3
78708;SHT31;68037;51.978;5.650;2023-04-02T17:21:07;15.5;35.3
78708;SHT31;68037;51.978;5.650;2023-04-02T17:23:47;15.4;36.2
78708;SHT31;68037;51.978;5.650;2023-04-02T17:26:18;15.3;36.1